Barry, Texas
Current Conditions -  °F | °C
As of 11:53 PM on Thursday 27 Nov 2014 (Local Time) from KCRS Reporting Station
Clear Clear  
Wind Chill: 43°   Ceiling: Unl
Heat Index: 45°   Visibility: 10mi
Dew Point: 31°   Wind: 5mph
Humidity: 58%   Direction: 160°SSE
Pressure: 30.39"   Gusts: NA
Location:  32.1°N, 96.64°W
Report Text: KCRS 280553Z AUTO 16004KT 10SM CLR 07/M01 A3039 RMK AO2 SLP290 T00721006 10122 20067 401610028 58006
Loading
Personal Weather Stations






























Interactive Weather Map New forecast layout! Learn more

10-Day Weather Forecast

Advertisements
Track Severe Weather on mobile